createdAt,value
2017-02-09T00:00:37.695Z,976.38
2017-02-09T00:01:46.838Z,976.46
2017-02-09T00:02:56.359Z,976.44
2017-02-09T00:04:06.644Z,976.43
2017-02-09T00:05:16.878Z,976.4
2017-02-09T00:06:26.791Z,976.43
2017-02-09T00:07:36.309Z,976.45
2017-02-09T00:08:46.548Z,976.41
2017-02-09T00:09:56.454Z,976.42
2017-02-09T00:11:05.590Z,976.45
2017-02-09T00:12:15.117Z,976.43
2017-02-09T00:13:25.804Z,976.45
2017-02-09T00:14:36.096Z,976.39
2017-02-09T00:15:45.218Z,976.4
2017-02-09T00:16:55.185Z,976.43
2017-02-09T00:18:05.101Z,976.4
2017-02-09T00:19:15.011Z,976.44
2017-02-09T00:20:24.531Z,976.41
2017-02-09T00:21:34.045Z,976.39
2017-02-09T00:22:43.900Z,976.45
2017-02-09T00:23:53.952Z,976.44
2017-02-09T00:25:03.487Z,976.44
2017-02-09T00:26:13.013Z,976.43
2017-02-09T00:27:22.920Z,976.42
2017-02-09T00:28:32.061Z,976.47
2017-02-09T00:29:41.199Z,976.45
2017-02-09T00:30:51.311Z,976.46
2017-02-09T00:32:00.453Z,976.43
2017-02-09T00:33:10.742Z,976.5
2017-02-09T00:34:20.265Z,976.43
2017-02-09T00:35:29.042Z,976.48
2017-02-09T00:36:38.569Z,976.48
2017-02-09T00:37:49.110Z,976.43
2017-02-09T00:38:57.805Z,976.45
2017-02-09T00:40:07.721Z,976.5
2017-02-09T00:41:17.631Z,976.49
2017-02-09T00:42:27.936Z,976.47
2017-02-09T00:43:38.615Z,976.45
2017-02-09T00:44:48.953Z,976.51
2017-02-09T00:45:58.036Z,976.5
2017-02-09T00:47:07.172Z,976.52
2017-02-09T00:48:17.086Z,976.5
2017-02-09T00:49:27.775Z,976.53
2017-02-09T00:50:37.673Z,976.53
2017-02-09T00:51:47.187Z,976.51
2017-02-09T00:52:57.794Z,976.54
2017-02-09T00:54:07.267Z,976.5
2017-02-09T00:55:17.181Z,976.54
2017-02-09T00:56:27.476Z,976.57
2017-02-09T00:57:37.375Z,976.6
2017-02-09T00:58:46.850Z,976.59
2017-02-09T00:59:57.145Z,976.57
2017-02-09T01:01:07.036Z,976.56
2017-02-09T01:02:16.501Z,976.58
2017-02-09T01:03:26.449Z,976.54
2017-02-09T01:04:36.303Z,976.56
2017-02-09T01:05:46.208Z,976.59
2017-02-09T01:06:55.716Z,976.56
2017-02-09T01:08:05.174Z,976.54
2017-02-09T01:09:14.252Z,976.58
2017-02-09T01:10:24.172Z,976.58
2017-02-09T01:11:34.472Z,976.58
2017-02-09T01:12:44.767Z,976.54
2017-02-09T01:13:55.442Z,976.52
2017-02-09T01:15:06.115Z,976.51
2017-02-09T01:16:16.360Z,976.51
2017-02-09T01:17:25.888Z,976.52
2017-02-09T01:18:36.579Z,976.51
2017-02-09T01:19:46.492Z,976.51
2017-02-09T01:20:56.401Z,976.53
2017-02-09T01:22:06.695Z,976.51
2017-02-09T01:23:15.834Z,976.49
2017-02-09T01:24:25.313Z,976.47
2017-02-09T01:25:34.443Z,976.48
2017-02-09T01:26:43.574Z,976.47
2017-02-09T01:27:53.089Z,976.46
2017-02-09T01:29:02.602Z,976.5
2017-02-09T01:30:12.127Z,976.5
2017-02-09T01:31:22.038Z,976.51
2017-02-09T01:32:32.730Z,976.5
2017-02-09T01:33:42.252Z,976.53
2017-02-09T01:34:52.166Z,976.51
2017-02-09T01:36:02.847Z,976.48
2017-02-09T01:37:12.376Z,976.52
2017-02-09T01:38:22.283Z,976.5
2017-02-09T01:39:31.406Z,976.49
2017-02-09T01:40:40.872Z,976.5
2017-02-09T01:41:50.395Z,976.53
2017-02-09T01:43:00.300Z,976.52
2017-02-09T01:44:10.596Z,976.53
2017-02-09T01:45:21.266Z,976.52
2017-02-09T01:46:30.730Z,976.53
2017-02-09T01:47:40.627Z,976.51
2017-02-09T01:48:50.479Z,976.55
2017-02-09T01:50:00.383Z,976.54
2017-02-09T01:51:10.680Z,976.53
2017-02-09T01:52:20.591Z,976.52
2017-02-09T01:53:30.497Z,976.53
2017-02-09T01:54:40.406Z,976.57
2017-02-09T01:55:50.318Z,976.54
2017-02-09T01:57:00.227Z,976.55
2017-02-09T01:58:10.126Z,976.54
2017-02-09T01:59:20.365Z,976.53
2017-02-09T02:00:29.888Z,976.5
2017-02-09T02:01:39.798Z,976.48
2017-02-09T02:02:49.857Z,976.46
2017-02-09T02:03:59.368Z,976.45
2017-02-09T02:05:09.994Z,976.43
2017-02-09T02:06:18.751Z,976.42
2017-02-09T02:07:28.274Z,976.39
2017-02-09T02:08:37.805Z,976.39
2017-02-09T02:09:48.101Z,976.39
2017-02-09T02:10:57.625Z,976.45
2017-02-09T02:12:07.143Z,976.4
2017-02-09T02:13:16.279Z,976.39
2017-02-09T02:14:26.183Z,976.4
2017-02-09T02:15:35.713Z,976.37
2017-02-09T02:16:45.622Z,976.32
2017-02-09T02:17:55.526Z,976.34
2017-02-09T02:19:06.244Z,976.33
2017-02-09T02:20:14.991Z,976.32
2017-02-09T02:21:24.483Z,976.31
2017-02-09T02:22:34.771Z,976.36
2017-02-09T02:23:45.068Z,976.36
2017-02-09T02:24:54.974Z,976.37
2017-02-09T02:26:04.117Z,976.34
2017-02-09T02:27:13.630Z,976.38
2017-02-09T02:28:23.477Z,976.39
2017-02-09T02:29:33.776Z,976.42
2017-02-09T02:30:44.465Z,976.41
2017-02-09T02:31:54.573Z,976.39
2017-02-09T02:33:04.486Z,976.39
2017-02-09T02:34:14.779Z,976.42
2017-02-09T02:35:24.303Z,976.43
2017-02-09T02:36:34.239Z,976.41
2017-02-09T02:37:44.482Z,976.44
2017-02-09T02:38:54.645Z,976.41
2017-02-09T02:40:04.564Z,976.38
2017-02-09T02:41:14.479Z,976.41
2017-02-09T02:42:24.780Z,976.4
2017-02-09T02:43:33.901Z,976.38
2017-02-09T02:44:43.367Z,976.39
2017-02-09T02:45:52.893Z,976.36
2017-02-09T02:47:02.023Z,976.33
2017-02-09T02:48:12.316Z,976.36
2017-02-09T02:49:21.439Z,976.34
2017-02-09T02:50:31.276Z,976.35
2017-02-09T02:51:40.725Z,976.42
2017-02-09T02:52:50.192Z,976.37
2017-02-09T02:53:59.722Z,976.38
2017-02-09T02:55:09.621Z,976.36
2017-02-09T02:56:19.084Z,976.37
2017-02-09T02:57:28.997Z,976.36
2017-02-09T02:58:38.327Z,976.36
2017-02-09T02:59:48.624Z,976.36
2017-02-09T03:00:58.148Z,976.37
2017-02-09T03:02:08.057Z,976.36
2017-02-09T03:03:17.963Z,976.35
2017-02-09T03:04:27.852Z,976.37
2017-02-09T03:05:37.319Z,976.38
2017-02-09T03:06:46.452Z,976.38
2017-02-09T03:07:56.689Z,976.39
2017-02-09T03:09:06.544Z,976.41
2017-02-09T03:10:16.848Z,976.4
2017-02-09T03:11:26.766Z,976.42
2017-02-09T03:12:37.456Z,976.41
2017-02-09T03:13:47.754Z,976.44
2017-02-09T03:14:58.106Z,976.43
2017-02-09T03:16:07.633Z,976.39
2017-02-09T03:17:17.540Z,976.42
2017-02-09T03:18:27.478Z,976.41
2017-02-09T03:19:36.615Z,976.37
2017-02-09T03:20:46.533Z,976.37
2017-02-09T03:21:55.618Z,976.37
2017-02-09T03:23:05.914Z,976.41
2017-02-09T03:24:15.821Z,976.43
2017-02-09T03:25:25.339Z,976.41
2017-02-09T03:26:34.845Z,976.42
2017-02-09T03:27:45.071Z,976.43
2017-02-09T03:28:54.205Z,976.42
2017-02-09T03:30:04.118Z,976.43
2017-02-09T03:31:13.635Z,976.4
2017-02-09T03:32:23.911Z,976.45
2017-02-09T03:33:33.960Z,976.44
2017-02-09T03:34:44.246Z,976.44
2017-02-09T03:35:54.153Z,976.47
2017-02-09T03:37:03.673Z,976.46
2017-02-09T03:38:13.190Z,976.46
2017-02-09T03:39:22.709Z,976.47
2017-02-09T03:40:32.232Z,976.44
2017-02-09T03:41:42.508Z,976.43
2017-02-09T03:42:52.340Z,976.46
2017-02-09T03:44:02.180Z,976.45
2017-02-09T03:45:12.413Z,976.49
2017-02-09T03:46:22.319Z,976.54
2017-02-09T03:47:32.224Z,976.51
2017-02-09T03:48:42.141Z,976.58
2017-02-09T03:49:52.041Z,976.57
2017-02-09T03:51:02.336Z,976.54
2017-02-09T03:52:11.093Z,976.52
2017-02-09T03:53:21.413Z,976.54
2017-02-09T03:54:31.263Z,976.52
2017-02-09T03:55:41.162Z,976.52
2017-02-09T03:56:51.835Z,976.53
2017-02-09T03:58:02.712Z,976.5
2017-02-09T03:59:12.231Z,976.47
2017-02-09T04:00:22.140Z,976.51
2017-02-09T04:01:32.438Z,976.52
2017-02-09T04:02:42.344Z,976.51
2017-02-09T04:03:52.255Z,976.51
2017-02-09T04:05:02.568Z,976.5
2017-02-09T04:06:12.806Z,976.53
2017-02-09T04:07:22.325Z,976.53
2017-02-09T04:08:31.840Z,976.53
2017-02-09T04:09:42.513Z,976.55
2017-02-09T04:10:52.030Z,976.52
2017-02-09T04:12:01.930Z,976.53
2017-02-09T04:13:11.836Z,976.56
2017-02-09T04:14:22.105Z,976.53
2017-02-09T04:15:31.836Z,976.59
2017-02-09T04:16:41.353Z,976.57
2017-02-09T04:17:50.029Z,976.6
2017-02-09T04:18:59.106Z,976.55
2017-02-09T04:20:09.021Z,976.65
2017-02-09T04:21:18.142Z,976.64
2017-02-09T04:22:27.605Z,976.6
2017-02-09T04:23:37.442Z,976.6
2017-02-09T04:24:46.522Z,976.64
2017-02-09T04:25:55.651Z,976.6
2017-02-09T04:27:05.553Z,976.6
2017-02-09T04:28:14.683Z,976.67
2017-02-09T04:29:24.572Z,976.62
2017-02-09T04:30:34.038Z,976.61
2017-02-09T04:31:44.714Z,976.59
2017-02-09T04:32:54.620Z,976.6
2017-02-09T04:34:04.533Z,976.59
2017-02-09T04:35:14.034Z,976.62
2017-02-09T04:36:22.751Z,976.58
2017-02-09T04:37:32.267Z,976.58
2017-02-09T04:38:42.552Z,976.57
2017-02-09T04:39:52.451Z,976.57
2017-02-09T04:41:02.358Z,976.55
2017-02-09T04:42:11.873Z,976.56
2017-02-09T04:43:21.012Z,976.53
2017-02-09T04:44:31.312Z,976.55
2017-02-09T04:45:40.447Z,976.52
2017-02-09T04:46:51.128Z,976.53
2017-02-09T04:48:01.413Z,976.52
2017-02-09T04:49:11.707Z,976.49
2017-02-09T04:50:21.219Z,976.54
2017-02-09T04:51:31.073Z,976.58
2017-02-09T04:52:40.976Z,976.55
2017-02-09T04:53:51.645Z,976.55
2017-02-09T04:55:00.762Z,976.52
2017-02-09T04:56:10.631Z,976.54
2017-02-09T04:57:19.764Z,976.58
2017-02-09T04:58:30.053Z,976.57
2017-02-09T04:59:39.192Z,976.56
2017-02-09T05:00:49.094Z,976.55
2017-02-09T05:01:59.388Z,976.54
2017-02-09T05:03:08.911Z,976.59
2017-02-09T05:04:18.814Z,976.57
2017-02-09T05:05:27.953Z,976.59
2017-02-09T05:06:37.102Z,976.57
2017-02-09T05:07:46.625Z,976.58
2017-02-09T05:08:55.741Z,976.52
2017-02-09T05:10:05.981Z,976.55
2017-02-09T05:11:16.664Z,976.5
2017-02-09T05:12:26.576Z,976.51
2017-02-09T05:13:36.488Z,976.55
2017-02-09T05:14:47.166Z,976.5
2017-02-09T05:15:57.076Z,976.57
2017-02-09T05:17:06.580Z,976.57
2017-02-09T05:18:15.659Z,976.55
2017-02-09T05:19:26.331Z,976.57
2017-02-09T05:20:36.247Z,976.57
2017-02-09T05:21:46.141Z,976.61
2017-02-09T05:22:55.996Z,976.61
2017-02-09T05:24:06.286Z,976.65
2017-02-09T05:25:16.962Z,976.62
2017-02-09T05:26:27.249Z,976.61
2017-02-09T05:27:37.155Z,976.59
2017-02-09T05:28:46.666Z,976.56
2017-02-09T05:29:56.180Z,976.55
2017-02-09T05:31:06.030Z,976.5
2017-02-09T05:32:15.535Z,976.58
2017-02-09T05:33:25.767Z,976.52
2017-02-09T05:34:35.671Z,976.52
2017-02-09T05:35:45.972Z,976.54
2017-02-09T05:36:55.496Z,976.51
2017-02-09T05:38:06.168Z,976.55
2017-02-09T05:39:16.073Z,976.53
2017-02-09T05:40:26.368Z,976.58
2017-02-09T05:41:36.667Z,976.57
2017-02-09T05:42:46.587Z,976.57
2017-02-09T05:43:55.953Z,976.59
2017-02-09T05:45:06.187Z,976.57
2017-02-09T05:46:15.319Z,976.58
2017-02-09T05:47:25.227Z,976.57
2017-02-09T05:48:35.130Z,976.63
2017-02-09T05:49:45.423Z,976.58
2017-02-09T05:50:55.364Z,976.59
2017-02-09T05:52:05.266Z,976.62
2017-02-09T05:53:14.787Z,976.61
2017-02-09T05:54:24.694Z,976.62
2017-02-09T05:55:35.578Z,976.58
2017-02-09T05:56:45.483Z,976.59
2017-02-09T05:57:55.756Z,976.62
2017-02-09T05:59:05.601Z,976.6
2017-02-09T06:00:15.541Z,976.65
2017-02-09T06:01:25.836Z,976.65
2017-02-09T06:02:35.754Z,976.62
2017-02-09T06:03:45.284Z,976.65
2017-02-09T06:04:55.196Z,976.62
2017-02-09T06:06:03.940Z,976.65
2017-02-09T06:07:14.240Z,976.65
2017-02-09T06:08:24.149Z,976.65
2017-02-09T06:09:34.062Z,976.63
2017-02-09T06:10:43.966Z,976.68
2017-02-09T06:11:53.478Z,976.66
2017-02-09T06:13:04.100Z,976.68
2017-02-09T06:14:14.008Z,976.67
2017-02-09T06:15:23.919Z,976.66
2017-02-09T06:16:33.817Z,976.65
2017-02-09T06:17:44.050Z,976.68
2017-02-09T06:18:53.557Z,976.68
2017-02-09T06:20:03.024Z,976.68
2017-02-09T06:21:12.165Z,976.68
2017-02-09T06:22:22.077Z,976.7
2017-02-09T06:23:31.585Z,976.7
2017-02-09T06:24:41.486Z,976.73
2017-02-09T06:25:51.402Z,976.7
2017-02-09T06:27:01.703Z,976.77
2017-02-09T06:28:11.615Z,976.75
2017-02-09T06:29:21.138Z,976.75
2017-02-09T06:30:30.659Z,976.75
2017-02-09T06:31:39.787Z,976.75
2017-02-09T06:32:49.638Z,976.72
2017-02-09T06:33:59.647Z,976.71
2017-02-09T06:35:09.560Z,976.71
2017-02-09T06:36:19.084Z,976.71
2017-02-09T06:37:28.609Z,976.7
2017-02-09T06:38:37.364Z,976.69
2017-02-09T06:39:47.273Z,976.69
2017-02-09T06:40:57.550Z,976.74
2017-02-09T06:42:07.465Z,976.75
2017-02-09T06:43:17.367Z,976.75
2017-02-09T06:44:27.288Z,976.73
2017-02-09T06:45:36.762Z,976.71
2017-02-09T06:46:46.662Z,976.7
2017-02-09T06:47:56.215Z,976.74
2017-02-09T06:49:06.112Z,976.73
2017-02-09T06:50:16.346Z,976.72
2017-02-09T06:51:25.872Z,976.75
2017-02-09T06:52:35.785Z,976.74
2017-02-09T06:53:45.696Z,976.76
2017-02-09T06:54:55.972Z,976.74
2017-02-09T06:56:05.824Z,976.77
2017-02-09T06:57:15.339Z,976.79
2017-02-09T06:58:25.249Z,976.79
2017-02-09T06:59:35.159Z,976.81
2017-02-09T07:00:45.070Z,976.77
2017-02-09T07:01:54.590Z,976.8
2017-02-09T07:03:04.504Z,976.82
2017-02-09T07:04:14.839Z,976.76
2017-02-09T07:05:25.138Z,976.72
2017-02-09T07:06:33.867Z,976.74
2017-02-09T07:07:43.319Z,976.77
2017-02-09T07:08:53.328Z,976.78
2017-02-09T07:10:02.474Z,976.77
2017-02-09T07:11:12.387Z,976.77
2017-02-09T07:12:22.297Z,976.8
2017-02-09T07:13:32.612Z,976.79
2017-02-09T07:14:42.146Z,976.82
2017-02-09T07:15:52.055Z,976.81
2017-02-09T07:17:01.963Z,976.84
2017-02-09T07:18:12.649Z,976.81
2017-02-09T07:19:22.950Z,976.85
2017-02-09T07:20:32.067Z,976.85
2017-02-09T07:21:42.303Z,976.87
2017-02-09T07:22:52.947Z,976.87
2017-02-09T07:24:01.696Z,976.83
2017-02-09T07:25:10.836Z,976.87
2017-02-09T07:26:20.360Z,976.88
2017-02-09T07:27:30.267Z,976.87
2017-02-09T07:28:40.574Z,976.86
2017-02-09T07:29:50.093Z,976.8
2017-02-09T07:31:00.014Z,976.86
2017-02-09T07:32:09.918Z,976.86
2017-02-09T07:33:19.825Z,976.85
2017-02-09T07:34:29.344Z,976.86
2017-02-09T07:35:39.255Z,976.81
2017-02-09T07:36:49.164Z,976.86
2017-02-09T07:37:59.052Z,976.84
2017-02-09T07:39:09.705Z,976.87
2017-02-09T07:40:19.173Z,976.86
2017-02-09T07:41:29.476Z,976.87
2017-02-09T07:42:39.758Z,976.87
2017-02-09T07:43:49.632Z,976.89
2017-02-09T07:44:59.929Z,976.86
2017-02-09T07:46:09.832Z,976.83
2017-02-09T07:47:19.689Z,976.88
2017-02-09T07:48:29.202Z,976.87
2017-02-09T07:49:39.074Z,976.88
2017-02-09T07:50:48.152Z,976.9
2017-02-09T07:51:57.285Z,976.87
2017-02-09T07:53:07.574Z,976.86
2017-02-09T07:54:17.475Z,976.85
2017-02-09T07:55:27.391Z,976.86
2017-02-09T07:56:36.520Z,976.83
2017-02-09T07:57:46.401Z,976.86
2017-02-09T07:58:56.628Z,976.85
2017-02-09T08:00:06.477Z,976.83
2017-02-09T08:01:16.006Z,976.88
2017-02-09T08:02:26.298Z,976.86
2017-02-09T08:03:35.838Z,976.88
2017-02-09T08:04:44.980Z,976.82
2017-02-09T08:05:55.279Z,976.88
2017-02-09T08:07:04.798Z,976.93
2017-02-09T08:08:15.064Z,976.92
2017-02-09T08:09:24.589Z,976.9
2017-02-09T08:10:34.493Z,976.9
2017-02-09T08:11:44.392Z,976.87
2017-02-09T08:12:54.683Z,976.88
2017-02-09T08:14:04.929Z,976.92
2017-02-09T08:15:13.688Z,976.85
2017-02-09T08:16:23.598Z,976.85
2017-02-09T08:17:33.497Z,976.88
2017-02-09T08:18:42.578Z,976.89
2017-02-09T08:19:52.492Z,976.9
2017-02-09T08:21:02.036Z,976.86
2017-02-09T08:22:11.560Z,976.89
2017-02-09T08:23:20.698Z,976.86
2017-02-09T08:24:30.620Z,976.8
2017-02-09T08:25:40.734Z,976.83
2017-02-09T08:26:50.638Z,976.82
2017-02-09T08:27:59.775Z,976.79
2017-02-09T08:29:08.545Z,976.8
2017-02-09T08:30:17.676Z,976.8
2017-02-09T08:31:27.526Z,976.75
2017-02-09T08:32:37.047Z,976.78
2017-02-09T08:33:45.792Z,976.8
2017-02-09T08:34:55.700Z,976.81
2017-02-09T08:36:06.384Z,976.81
2017-02-09T08:37:16.300Z,976.79
2017-02-09T08:38:25.826Z,976.77
2017-02-09T08:39:36.496Z,976.76
2017-02-09T08:40:45.576Z,976.78
2017-02-09T08:41:54.693Z,976.72
2017-02-09T08:43:04.147Z,976.8
2017-02-09T08:44:13.647Z,976.76
2017-02-09T08:45:23.115Z,976.79
2017-02-09T08:46:32.652Z,976.75
2017-02-09T08:47:42.552Z,976.72
2017-02-09T08:48:52.403Z,976.68
2017-02-09T08:50:01.140Z,976.67
2017-02-09T08:51:10.222Z,976.65
2017-02-09T08:52:19.736Z,976.62
2017-02-09T08:53:29.196Z,976.66
2017-02-09T08:54:38.660Z,976.66
2017-02-09T08:55:48.187Z,976.62
2017-02-09T08:56:58.583Z,976.63
2017-02-09T08:58:08.494Z,976.65
2017-02-09T08:59:18.400Z,976.63
2017-02-09T09:00:27.544Z,976.64
2017-02-09T09:01:37.064Z,976.67
2017-02-09T09:02:47.288Z,976.71
2017-02-09T09:03:56.768Z,976.66
2017-02-09T09:05:06.297Z,976.68
2017-02-09T09:06:16.206Z,976.67
2017-02-09T09:07:24.954Z,976.71
2017-02-09T09:08:35.238Z,976.7
2017-02-09T09:09:44.707Z,976.68
2017-02-09T09:10:53.851Z,976.73
2017-02-09T09:12:04.132Z,976.76
2017-02-09T09:13:13.684Z,976.7
2017-02-09T09:14:23.203Z,976.77
2017-02-09T09:15:32.723Z,976.71
2017-02-09T09:16:43.013Z,976.66
2017-02-09T09:17:52.920Z,976.69
2017-02-09T09:19:03.209Z,976.68
2017-02-09T09:20:13.121Z,976.68
2017-02-09T09:21:23.401Z,976.69
2017-02-09T09:22:33.240Z,976.7
2017-02-09T09:23:41.974Z,976.72
2017-02-09T09:24:51.504Z,976.7
2017-02-09T09:26:01.034Z,976.67
2017-02-09T09:27:10.564Z,976.71
2017-02-09T09:28:19.697Z,976.68
2017-02-09T09:29:29.984Z,976.71
2017-02-09T09:30:39.125Z,976.68
2017-02-09T09:31:48.265Z,976.7
2017-02-09T09:32:57.788Z,976.72
2017-02-09T09:34:07.633Z,976.75
2017-02-09T09:35:16.725Z,976.79
2017-02-09T09:36:26.636Z,976.79
2017-02-09T09:37:36.162Z,976.76
2017-02-09T09:38:45.289Z,976.73
2017-02-09T09:39:54.374Z,976.76
2017-02-09T09:41:03.154Z,976.76
2017-02-09T09:42:13.009Z,976.78
2017-02-09T09:43:22.520Z,976.8
2017-02-09T09:44:31.989Z,976.8
2017-02-09T09:45:41.898Z,976.8
2017-02-09T09:46:51.813Z,976.76
2017-02-09T09:48:01.718Z,976.78
2017-02-09T09:49:11.633Z,976.73
2017-02-09T09:50:21.933Z,976.82
2017-02-09T09:51:31.463Z,976.76
2017-02-09T09:52:41.382Z,976.74
2017-02-09T09:53:51.291Z,976.72
2017-02-09T09:55:00.047Z,976.75
2017-02-09T09:56:09.559Z,976.74
2017-02-09T09:57:18.639Z,976.68
2017-02-09T09:58:27.781Z,976.68
2017-02-09T09:59:37.302Z,976.72
2017-02-09T10:00:46.441Z,976.7
2017-02-09T10:01:55.581Z,976.72
2017-02-09T10:03:05.877Z,976.73
2017-02-09T10:04:16.170Z,976.75
2017-02-09T10:05:26.075Z,976.78
2017-02-09T10:06:35.977Z,976.78
2017-02-09T10:07:45.443Z,976.81
2017-02-09T10:08:55.004Z,976.81
2017-02-09T10:10:04.534Z,976.77
2017-02-09T10:11:14.834Z,976.84
2017-02-09T10:12:24.364Z,976.86
2017-02-09T10:13:34.371Z,976.86
2017-02-09T10:14:44.290Z,976.82
2017-02-09T10:15:54.590Z,976.78
2017-02-09T10:17:04.486Z,976.74
2017-02-09T10:18:14.333Z,976.82
2017-02-09T10:19:23.061Z,976.8
2017-02-09T10:20:32.977Z,976.82
2017-02-09T10:21:42.871Z,976.77
2017-02-09T10:22:52.374Z,976.78
2017-02-09T10:24:02.287Z,976.78
2017-02-09T10:25:12.201Z,976.79
2017-02-09T10:26:21.338Z,976.85
2017-02-09T10:27:31.253Z,976.87
2017-02-09T10:28:40.383Z,976.87
2017-02-09T10:29:49.918Z,976.84
2017-02-09T10:30:59.831Z,976.84
2017-02-09T10:32:09.353Z,976.76
2017-02-09T10:33:19.261Z,976.77
2017-02-09T10:34:28.786Z,976.82
2017-02-09T10:35:37.919Z,976.8
2017-02-09T10:36:47.843Z,976.8
2017-02-09T10:37:57.418Z,976.84
2017-02-09T10:39:06.940Z,976.76
2017-02-09T10:40:17.232Z,976.75
2017-02-09T10:41:27.142Z,976.71
2017-02-09T10:42:36.659Z,976.7
2017-02-09T10:43:46.132Z,976.73
2017-02-09T10:44:56.432Z,976.71
2017-02-09T10:46:07.112Z,976.73
2017-02-09T10:47:16.261Z,976.68
2017-02-09T10:48:26.562Z,976.69
2017-02-09T10:49:36.473Z,976.7
2017-02-09T10:50:45.993Z,976.71
2017-02-09T10:51:56.604Z,976.68
2017-02-09T10:53:06.461Z,976.68
2017-02-09T10:54:16.373Z,976.72
2017-02-09T10:55:26.675Z,976.69
2017-02-09T10:56:36.985Z,976.76
2017-02-09T10:57:47.282Z,976.71
2017-02-09T10:58:56.790Z,976.72
2017-02-09T11:00:06.273Z,976.71
2017-02-09T11:01:16.572Z,976.68
2017-02-09T11:02:26.106Z,976.69
2017-02-09T11:03:36.035Z,976.69
2017-02-09T11:04:45.949Z,976.68
2017-02-09T11:05:55.863Z,976.67
2017-02-09T11:07:06.183Z,976.63
2017-02-09T11:08:16.471Z,976.64
2017-02-09T11:09:26.318Z,976.6
2017-02-09T11:10:37.009Z,976.61
2017-02-09T11:11:46.539Z,976.59
2017-02-09T11:12:55.451Z,976.63
2017-02-09T11:14:04.975Z,976.6
2017-02-09T11:15:15.215Z,976.62
2017-02-09T11:16:25.128Z,976.61
2017-02-09T11:17:35.423Z,976.59
2017-02-09T11:18:45.721Z,976.6
2017-02-09T11:19:56.013Z,976.59
2017-02-09T11:21:06.305Z,976.54
2017-02-09T11:22:15.835Z,976.56
2017-02-09T11:23:26.129Z,976.54
2017-02-09T11:24:36.041Z,976.55
2017-02-09T11:25:45.555Z,976.53
2017-02-09T11:26:55.412Z,976.56
2017-02-09T11:28:05.323Z,976.55
2017-02-09T11:29:14.845Z,976.52
2017-02-09T11:30:23.976Z,976.51
2017-02-09T11:31:33.449Z,976.47
2017-02-09T11:32:42.981Z,976.42
2017-02-09T11:33:52.889Z,976.44
2017-02-09T11:35:02.800Z,976.41
2017-02-09T11:36:11.568Z,976.36
2017-02-09T11:37:21.463Z,976.34
2017-02-09T11:38:30.546Z,976.36
2017-02-09T11:39:41.441Z,976.32
2017-02-09T11:40:52.132Z,976.32
2017-02-09T11:42:02.052Z,976.37
2017-02-09T11:43:11.583Z,976.36
2017-02-09T11:44:21.921Z,976.35
2017-02-09T11:45:31.857Z,976.31
2017-02-09T11:46:41.779Z,976.28
2017-02-09T11:47:51.693Z,976.3
2017-02-09T11:49:01.609Z,976.28
2017-02-09T11:50:11.139Z,976.23
2017-02-09T11:51:20.679Z,976.23
2017-02-09T11:52:29.826Z,976.26
2017-02-09T11:53:38.569Z,976.27
2017-02-09T11:54:47.722Z,976.23
2017-02-09T11:55:56.486Z,976.17
2017-02-09T11:57:06.777Z,976.12
2017-02-09T11:58:16.686Z,976.16
2017-02-09T11:59:25.430Z,976.07
2017-02-09T12:00:34.905Z,976.11
2017-02-09T12:01:43.651Z,976.12
2017-02-09T12:02:53.510Z,976.11
2017-02-09T12:04:03.421Z,976.14
2017-02-09T12:05:13.336Z,976.14
2017-02-09T12:06:23.638Z,976.14
2017-02-09T12:07:33.556Z,976.07
2017-02-09T12:08:43.472Z,976.06
2017-02-09T12:09:53.383Z,976.06
2017-02-09T12:11:02.905Z,976.08
2017-02-09T12:12:11.652Z,976.1
2017-02-09T12:13:21.118Z,976.03
2017-02-09T12:14:31.358Z,976.02
2017-02-09T12:15:41.265Z,975.97
2017-02-09T12:16:50.737Z,976
2017-02-09T12:17:59.493Z,976.01
2017-02-09T12:19:09.797Z,975.99
2017-02-09T12:20:19.715Z,975.96
2017-02-09T12:21:28.459Z,975.98
2017-02-09T12:22:37.599Z,975.94
2017-02-09T12:23:47.123Z,975.93
2017-02-09T12:24:56.751Z,975.88
2017-02-09T12:26:06.282Z,975.85
2017-02-09T12:27:15.440Z,975.88
2017-02-09T12:28:25.742Z,975.88
2017-02-09T12:29:34.890Z,975.87
2017-02-09T12:30:44.030Z,975.91
2017-02-09T12:31:53.945Z,975.88
2017-02-09T12:33:03.467Z,975.89
2017-02-09T12:34:12.988Z,975.92
2017-02-09T12:35:23.657Z,975.87
2017-02-09T12:36:33.513Z,975.83
2017-02-09T12:37:43.050Z,975.87
2017-02-09T12:38:52.191Z,975.87
2017-02-09T12:40:02.103Z,975.82
2017-02-09T12:41:11.188Z,975.78
2017-02-09T12:42:21.100Z,975.75
2017-02-09T12:43:31.395Z,975.72
2017-02-09T12:44:41.695Z,975.72
2017-02-09T12:45:51.211Z,975.72
2017-02-09T12:47:01.081Z,975.71
2017-02-09T12:48:09.841Z,975.69
2017-02-09T12:49:19.377Z,975.7
2017-02-09T12:50:28.904Z,975.68
2017-02-09T12:51:39.204Z,975.7
2017-02-09T12:52:48.732Z,975.66
2017-02-09T12:53:57.870Z,975.66
2017-02-09T12:55:07.395Z,975.62
2017-02-09T12:56:17.299Z,975.61
2017-02-09T12:57:26.833Z,975.61
2017-02-09T12:58:37.536Z,975.6
2017-02-09T12:59:47.455Z,975.56
2017-02-09T13:00:56.979Z,975.55
2017-02-09T13:02:07.283Z,975.49
2017-02-09T13:03:17.189Z,975.52
2017-02-09T13:04:27.101Z,975.53
2017-02-09T13:05:37.017Z,975.52
2017-02-09T13:06:46.929Z,975.53
2017-02-09T13:07:56.460Z,975.48
2017-02-09T13:09:05.612Z,975.49
2017-02-09T13:10:15.230Z,975.45
2017-02-09T13:11:24.439Z,975.47
2017-02-09T13:12:34.707Z,975.46
2017-02-09T13:13:44.233Z,975.47
2017-02-09T13:14:53.758Z,975.48
2017-02-09T13:16:03.618Z,975.48
2017-02-09T13:17:13.916Z,975.47
2017-02-09T13:18:23.449Z,975.46
2017-02-09T13:19:33.361Z,975.46
2017-02-09T13:20:43.662Z,975.41
2017-02-09T13:21:52.807Z,975.41
2017-02-09T13:23:02.712Z,975.37
2017-02-09T13:24:11.844Z,975.32
2017-02-09T13:25:21.755Z,975.31
2017-02-09T13:26:31.280Z,975.28
2017-02-09T13:27:40.417Z,975.26
2017-02-09T13:28:49.940Z,975.29
2017-02-09T13:30:00.250Z,975.28
2017-02-09T13:31:09.763Z,975.27
2017-02-09T13:32:19.611Z,975.24
2017-02-09T13:33:29.139Z,975.22
2017-02-09T13:34:39.424Z,975.21
2017-02-09T13:35:49.662Z,975.21
2017-02-09T13:36:59.043Z,975.18
2017-02-09T13:38:07.794Z,975.19
2017-02-09T13:39:17.699Z,975.14
2017-02-09T13:40:27.609Z,975.17
2017-02-09T13:41:37.906Z,975.13
2017-02-09T13:42:47.442Z,975.11
2017-02-09T13:43:57.338Z,975.1
2017-02-09T13:45:07.396Z,975.14
2017-02-09T13:46:16.536Z,975.12
2017-02-09T13:47:25.684Z,975.1
2017-02-09T13:48:35.591Z,975.07
2017-02-09T13:49:45.885Z,975.06
2017-02-09T13:50:55.413Z,975.06
2017-02-09T13:52:04.948Z,975.04
2017-02-09T13:53:14.082Z,975.05
2017-02-09T13:54:23.215Z,975.04
2017-02-09T13:55:33.453Z,975.05
2017-02-09T13:56:42.607Z,975.02
2017-02-09T13:57:51.746Z,975.01
2017-02-09T13:59:01.669Z,975.02
2017-02-09T14:00:11.970Z,975.04
2017-02-09T14:01:21.882Z,974.99
2017-02-09T14:02:32.187Z,975.02
2017-02-09T14:03:42.510Z,975.04
2017-02-09T14:04:52.415Z,975.05
2017-02-09T14:06:02.641Z,974.97
2017-02-09T14:07:12.880Z,974.97
2017-02-09T14:08:22.788Z,975.02
2017-02-09T14:09:32.306Z,974.97
2017-02-09T14:10:41.448Z,974.97
2017-02-09T14:11:50.590Z,974.96
2017-02-09T14:13:00.886Z,974.92
2017-02-09T14:14:10.413Z,974.97
2017-02-09T14:15:20.325Z,974.96
2017-02-09T14:16:29.853Z,975.02
2017-02-09T14:17:39.383Z,974.98
2017-02-09T14:18:49.686Z,975
2017-02-09T14:19:59.299Z,974.95
2017-02-09T14:21:08.774Z,974.99
2017-02-09T14:22:19.068Z,974.98
2017-02-09T14:23:29.990Z,974.95
2017-02-09T14:24:40.297Z,974.95
2017-02-09T14:25:50.594Z,974.92
2017-02-09T14:27:00.067Z,974.95
2017-02-09T14:28:10.335Z,974.96
2017-02-09T14:29:20.191Z,974.93
2017-02-09T14:30:29.326Z,974.93
2017-02-09T14:31:39.624Z,974.94
2017-02-09T14:32:49.918Z,974.9
2017-02-09T14:33:59.888Z,974.94